Broadview, MT (59015)

5:54 AM MST on February 10, 2016 (GMT -0700)
Billings Logan International | | Change Station
CLOSE
Current Station
Airport
Location: Billings,
Elevation: 3570 ft
Nearby Weather Stations

Elev 3570 ft 45.81 °N, 108.54 °W | Updated 1 hour ago

Clear
Clear
45 °F
Feels Like 37 °F
N
20
Wind Variable Wind from WSW

Today
High -- | Low -- °F
--% Chance of Precip.
Yesterday
High -- | Low -- °F
Precip. -- in
Pressure 30.01 in
Visibility 10.0 miles
Clouds Clear
Windchill 37 °F
Dew Point 20 °F
Humidity 37%
Rainfall 0.00 in
Snow Depth Not available.
7:26 AM 5:33 PM
Waxing Crescent, 5% visible
METAR KBIL 101153Z 24017KT 10SM CLR 07/M07 A3001 RMK AO2 PK WND 24026/1111 SLP162 T00721067 10083 20061 55001
Pressure 30.01 in
Visibility 10.0 miles
Clouds Clear
Windchill 37 °F
Dew Point 20 °F
Humidity 37%
Rainfall 0.00 in
Snow Depth Not available.
7:26 AM 5:33 PM
Waxing Crescent, 5% visible
METAR KBIL 101153Z 24017KT 10SM CLR 07/M07 A3001 RMK AO2 PK WND 24026/1111 SLP162 T00721067 10083 20061 55001

10-Day Weather Forecast

Almanac

Astronomy

Feb. 10, 2016 Rise Set
Actual Time
Civil Twilight
Nautical Twilight
Astronomical Twilight
Moon
Length of Visible Light
Length of Day
Tomorrow will be .
, % of the Moon is Illuminated

Today's Extremes

State Highs State Lows

Community

WunderPhotos

Upload Photos

1,891,837 photos uploaded!

WunderBlog® & News

Nearby

Air Quality

  Air Quality AQ Index Pollutant
Not available.

Snow Depth

Station Depth Elevation

Earthquake Activity

City Distance Mag. Time & Date
Minimum magnitude displayed is 2.5.

Coastal Water Temperatures

Place Temperature

Stations

Nearby Weather Stations

Station Location Temp. Windchill Dew Point Humidity Wind Precip. Elev Updated Type
                   

Watches & Warnings

There are currently no watches in effect.